createdAt,value
2022-12-08T07:10:21.002Z,0
2022-12-08T07:15:30.916Z,20.3
2022-12-08T07:20:40.694Z,23.2
2022-12-08T07:25:50.448Z,25.4
2022-12-08T07:31:00.245Z,26.4
2022-12-08T07:36:10.514Z,27.3
2022-12-08T07:41:20.899Z,27.7
2022-12-08T07:46:30.888Z,28
2022-12-08T07:51:40.873Z,27.8
2022-12-08T07:56:50.786Z,27.7
2022-12-08T08:02:00.555Z,27.7
2022-12-08T08:07:10.329Z,27.6
2022-12-08T08:12:20.599Z,27.4
2022-12-08T08:17:30.357Z,26.9
2022-12-08T08:22:40.635Z,26.5
2022-12-08T08:27:50.406Z,26.1
2022-12-08T08:33:00.182Z,25.9
2022-12-08T08:38:09.942Z,25.8
2022-12-08T08:43:19.728Z,25.5
2022-12-08T08:48:29.489Z,25.1
2022-12-08T08:53:39.276Z,25
2022-12-08T08:58:48.539Z,24.9
2022-12-08T09:03:58.808Z,24.7
2022-12-08T09:09:09.081Z,24.6
2022-12-08T09:14:19.356Z,24.7
2022-12-08T09:19:29.630Z,24.9
2022-12-08T09:24:39.905Z,25.1
2022-12-08T09:29:50.177Z,24.7
2022-12-08T09:35:00.448Z,25.3
2022-12-08T09:40:10.701Z,25.7
2022-12-08T09:45:20.976Z,25.9
2022-12-08T09:50:31.255Z,26.2
2022-12-08T09:55:41.523Z,26.6
2022-12-08T10:00:51.798Z,27.1
2022-12-08T10:06:02.076Z,27.7
2022-12-08T10:11:12.340Z,27.8
2022-12-08T10:16:22.623Z,27.7
2022-12-08T10:21:32.879Z,26.6
2022-12-08T10:26:43.152Z,27.2
2022-12-08T10:31:53.427Z,27.5
2022-12-08T10:37:03.702Z,27.6
2022-12-08T10:42:13.974Z,27.6
2022-12-08T10:47:24.255Z,27.5
2022-12-08T10:52:34.522Z,27.2
2022-12-08T10:57:44.794Z,27.2
2022-12-08T11:02:55.069Z,27.1
2022-12-08T11:08:05.341Z,26.9
2022-12-08T11:13:15.609Z,26.5
2022-12-08T11:18:25.876Z,26.1
2022-12-08T11:23:36.145Z,26.1
2022-12-08T11:28:46.424Z,26.1
2022-12-08T11:33:56.690Z,25.9
2022-12-08T11:39:06.960Z,26.1
2022-12-08T11:44:17.241Z,26.2
2022-12-08T11:49:27.524Z,26.3
2022-12-08T11:54:37.793Z,26.6
2022-12-08T11:59:48.061Z,26.7
2022-12-08T12:04:58.335Z,26.9
2022-12-08T12:10:08.610Z,27
2022-12-08T12:15:18.886Z,27.1
2022-12-08T12:20:29.158Z,27.1
2022-12-08T12:25:39.415Z,27.1
2022-12-08T12:30:49.685Z,27.1
2022-12-08T12:35:59.957Z,27
2022-12-08T12:41:10.230Z,26.9
2022-12-08T12:46:20.506Z,26.8
2022-12-08T12:51:30.773Z,26.6
2022-12-08T12:56:41.060Z,26.5
2022-12-08T13:01:51.457Z,26.4
2022-12-08T13:07:01.941Z,26.4
2022-12-08T13:12:12.429Z,26.4
2022-12-08T13:17:22.822Z,26.4
2022-12-08T13:22:33.085Z,26.3
2022-12-08T13:27:43.359Z,26.5
2022-12-08T13:32:53.649Z,26.6
2022-12-08T13:38:04.045Z,27
2022-12-08T13:43:14.529Z,27.4
2022-12-08T13:48:25.005Z,27.6
2022-12-08T13:53:35.406Z,27.7
2022-12-08T13:58:45.678Z,27.8
2022-12-08T14:03:55.953Z,27.7
2022-12-08T14:09:06.211Z,27.7
2022-12-08T14:14:16.496Z,27.5
2022-12-08T14:19:26.766Z,27.4
2022-12-08T14:24:37.159Z,26.9
2022-12-08T14:29:47.643Z,27
2022-12-08T14:34:58.118Z,26.9
2022-12-08T14:40:08.534Z,26.9
2022-12-08T14:45:18.804Z,26.9
2022-12-08T14:50:29.072Z,26.8
2022-12-08T14:55:39.337Z,26.8
2022-12-08T15:00:49.629Z,26.8
2022-12-08T15:05:59.901Z,26.9
2022-12-08T15:11:10.284Z,27
2022-12-08T15:16:20.778Z,27.2
2022-12-08T15:21:31.242Z,27.3
2022-12-08T15:26:41.661Z,27.4
2022-12-08T15:31:51.921Z,27.6
2022-12-08T15:37:02.196Z,27.7
2022-12-08T15:42:12.473Z,27.8
2022-12-08T15:47:22.754Z,27.8
2022-12-08T15:52:33.021Z,27.7
2022-12-08T15:57:43.286Z,27.6
2022-12-08T16:02:53.551Z,27.3
2022-12-08T16:08:03.952Z,27
2022-12-08T16:13:14.446Z,26.7
2022-12-08T16:18:24.923Z,26.6
2022-12-08T16:23:35.324Z,26.5
2022-12-08T16:28:45.593Z,26.4
2022-12-08T16:33:55.871Z,26.5
2022-12-08T16:39:06.132Z,26.8
2022-12-08T16:44:16.403Z,27
2022-12-08T16:49:26.677Z,27.1
2022-12-08T16:54:36.956Z,27.1
2022-12-08T16:59:47.230Z,27.2
2022-12-08T17:04:57.491Z,27.6
2022-12-08T17:10:07.766Z,27.8
2022-12-08T17:15:18.050Z,27.8
2022-12-08T17:20:28.331Z,27.7
2022-12-08T17:25:38.589Z,27.4
